Time;durP1;ratioP1;P1;durP2;ratioP2;P2;SDS_P1;SDS_P2;PMS_P1;PMS_P2;Temp;Humidity;BMP_temperature;BMP_pressure;BME280_temperature;BME280_humidity;BME280_pressure;Samples;Min_cycle;Max_cycle;Signal;HPM_P1;HPM_P2
2023/12/28 00:01:30;;;;;;;78.03;53.07;;;9.80;99.90;;;;;;6063016;23;20029;-75
2023/12/28 00:04:05;;;;;;;82.95;55.47;;;9.80;99.90;;;;;;6084431;23;20438;-76
2023/12/28 00:06:31;;;;;;;80.90;55.40;;;9.80;99.90;;;;;;6213108;23;20000;-79
2023/12/28 00:09:16;;;;;;;75.38;55.25;;;9.80;99.90;;;;;;6212756;23;20016;-77
2023/12/28 00:11:43;;;;;;;74.53;54.67;;;9.80;99.90;;;;;;6213475;23;20067;-78
2023/12/28 00:14:09;;;;;;;75.72;52.60;;;9.80;99.90;;;;;;6213465;23;20347;-75
2023/12/28 00:16:37;;;;;;;84.43;54.90;;;9.80;99.90;;;;;;6213590;23;20001;-78
2023/12/28 00:19:03;;;;;;;71.40;52.47;;;9.80;99.90;;;;;;6213119;23;20325;-76
2023/12/28 00:21:30;;;;;;;77.07;53.93;;;9.80;99.90;;;;;;6213664;23;20312;-76
2023/12/28 00:23:56;;;;;;;72.65;52.13;;;9.80;99.90;;;;;;6213670;23;20004;-76
2023/12/28 00:26:22;;;;;;;80.85;52.67;;;9.80;99.90;;;;;;6212337;23;20050;-76
2023/12/28 00:28:48;;;;;;;79.07;52.47;;;9.80;99.90;;;;;;6212572;23;20382;-77
2023/12/28 00:31:14;;;;;;;69.93;49.72;;;9.80;99.90;;;;;;6212567;23;20440;-81
2023/12/28 00:33:40;;;;;;;72.93;50.03;;;9.80;99.90;;;;;;6212377;23;20024;-78
2023/12/28 00:36:06;;;;;;;76.80;49.92;;;9.80;99.90;;;;;;6212263;23;19997;-79
2023/12/28 00:38:31;;;;;;;74.63;50.25;;;9.80;99.90;;;;;;6213170;23;20013;-78
2023/12/28 00:40:57;;;;;;;78.60;49.70;;;9.80;99.90;;;;;;6210509;23;20009;-78
2023/12/28 00:43:23;;;;;;;76.65;48.47;;;9.80;99.90;;;;;;6211366;23;20036;-75
2023/12/28 00:45:49;;;;;;;73.18;49.33;;;9.80;99.90;;;;;;6211681;23;20024;-81
2023/12/28 00:48:15;;;;;;;70.82;49.42;;;9.80;99.90;;;;;;6213150;23;20067;-77
2023/12/28 00:50:40;;;;;;;68.05;49.58;;;9.80;99.90;;;;;;6213277;23;20008;-85
2023/12/28 00:53:06;;;;;;;72.20;50.72;;;9.80;99.90;;;;;;6213029;23;19997;-84
2023/12/28 00:55:32;;;;;;;73.77;49.77;;;9.80;99.90;;;;;;6212127;23;20032;-81
2023/12/28 00:57:58;;;;;;;65.72;47.15;;;9.80;99.90;;;;;;6213158;23;20020;-84
2023/12/28 01:00:24;;;;;;;69.88;47.20;;;9.80;99.90;;;;;;6212089;23;20088;-84
2023/12/28 01:02:50;;;;;;;73.18;49.72;;;9.80;99.90;;;;;;6213080;23;20134;-83
2023/12/28 01:05:17;;;;;;;68.72;47.58;;;9.80;99.90;;;;;;6212862;23;20079;-84
2023/12/28 01:07:43;;;;;;;64.15;47.33;;;9.80;99.90;;;;;;6214261;23;20012;-85
2023/12/28 01:10:08;;;;;;;74.80;49.10;;;9.80;99.90;;;;;;6214940;23;20300;-76
2023/12/28 01:12:34;;;;;;;70.25;47.97;;;9.80;99.90;;;;;;6212876;23;20053;-75
2023/12/28 01:15:00;;;;;;;69.15;48.78;;;9.80;99.90;;;;;;6213107;23;19997;-76
2023/12/28 01:17:26;;;;;;;67.38;48.65;;;9.80;99.90;;;;;;6213300;23;20426;-76
2023/12/28 01:19:52;;;;;;;73.47;49.70;;;9.80;99.90;;;;;;6213468;23;20005;-75
2023/12/28 01:22:30;;;;;;;69.47;48.67;;;9.80;99.90;;;;;;6213079;23;20058;-75
2023/12/28 01:24:59;;;;;;;79.95;49.03;;;9.80;99.90;;;;;;6211303;23;20312;-74
2023/12/28 01:31:11;;;;;;;69.68;48.15;;;9.80;99.90;;;;;;6150298;23;20052;-73
2023/12/28 01:33:21;;;;;;;80.22;51.15;;;9.70;99.90;;;;;;6144222;23;20098;-76
2023/12/28 01:36:17;;;;;;;77.15;50.28;;;9.70;99.90;;;;;;6212978;23;20032;-75
2023/12/28 01:38:55;;;;;;;73.40;49.78;;;9.80;99.90;;;;;;6210002;23;20524;-76
2023/12/28 01:41:27;;;;;;;73.32;50.35;;;9.80;99.90;;;;;;6183004;23;20352;-75
2023/12/28 01:44:02;;;;;;;80.73;52.50;;;9.80;99.90;;;;;;6181618;23;20382;-75
2023/12/28 01:46:29;;;;;;;77.57;51.92;;;9.70;99.90;;;;;;6182906;23;20224;-76
2023/12/28 01:48:59;;;;;;;77.82;53.72;;;9.70;99.90;;;;;;6182844;23;20363;-76
2023/12/28 01:51:26;;;;;;;81.30;53.15;;;9.70;99.90;;;;;;6183107;23;20005;-77
2023/12/28 01:53:53;;;;;;;76.55;52.70;;;9.70;99.90;;;;;;6182329;23;20136;-77
2023/12/28 01:56:20;;;;;;;73.60;51.53;;;9.70;99.90;;;;;;6182359;23;20284;-77
2023/12/28 01:58:49;;;;;;;73.38;52.80;;;9.70;99.90;;;;;;6179659;23;20080;-77
2023/12/28 02:01:15;;;;;;;75.10;52.08;;;9.70;99.90;;;;;;6178751;23;20005;-76
2023/12/28 02:03:41;;;;;;;77.60;52.67;;;9.70;99.90;;;;;;6178550;23;20016;-76
2023/12/28 02:06:07;;;;;;;74.97;51.40;;;9.70;99.90;;;;;;6180783;23;20047;-77
2023/12/28 02:08:33;;;;;;;69.72;50.30;;;9.70;99.90;;;;;;6180493;23;20377;-77
2023/12/28 02:10:59;;;;;;;71.97;50.65;;;9.70;99.90;;;;;;6180914;23;20011;-78
2023/12/28 02:13:25;;;;;;;72.70;50.38;;;9.70;99.90;;;;;;6181601;23;20037;-76
2023/12/28 02:16:31;;;;;;;70.07;49.65;;;9.70;99.90;;;;;;6181351;23;20323;-78
2023/12/28 02:19:03;;;;;;;74.87;49.43;;;9.70;99.90;;;;;;6179616;23;20084;-76
2023/12/28 02:21:31;;;;;;;73.53;49.10;;;9.80;99.90;;;;;;6180524;23;20072;-76
2023/12/28 02:23:57;;;;;;;70.88;50.75;;;9.70;99.90;;;;;;6180811;23;20005;-77
2023/12/28 02:26:23;;;;;;;72.27;49.07;;;9.70;99.90;;;;;;6180862;23;20074;-81
2023/12/28 02:28:49;;;;;;;65.93;50.00;;;9.70;99.90;;;;;;6181137;23;20009;-76
2023/12/28 02:31:23;;;;;;;76.00;52.20;;;9.80;99.90;;;;;;6182677;23;20001;-77
2023/12/28 02:33:57;;;;;;;67.00;49.10;;;9.70;99.90;;;;;;6182725;23;20124;-75
2023/12/28 02:36:26;;;;;;;70.87;48.00;;;9.70;99.90;;;;;;6182521;23;20005;-80
2023/12/28 02:38:55;;;;;;;72.57;49.80;;;9.70;99.90;;;;;;6183491;23;20446;-76
2023/12/28 02:41:22;;;;;;;72.50;49.67;;;9.70;99.90;;;;;;6183232;23;20015;-78
2023/12/28 02:43:48;;;;;;;67.77;48.20;;;9.60;99.90;;;;;;6183453;23;20028;-76
2023/12/28 02:46:14;;;;;;;72.05;50.28;;;9.60;99.90;;;;;;6183263;23;20005;-77
2023/12/28 02:48:42;;;;;;;77.97;50.93;;;9.60;99.90;;;;;;6185061;23;20052;-74
2023/12/28 02:51:07;;;;;;;71.43;49.50;;;9.60;99.90;;;;;;6184791;23;20104;-76
2023/12/28 02:53:34;;;;;;;72.63;50.00;;;9.60;99.90;;;;;;6184510;23;20036;-74
2023/12/28 02:56:00;;;;;;;72.03;50.50;;;9.60;99.90;;;;;;6184230;23;20001;-78
2023/12/28 02:58:35;;;;;;;75.22;49.05;;;9.60;99.90;;;;;;6184056;23;20079;-74
2023/12/28 03:01:35;;;;;;;82.47;50.27;;;9.60;99.90;;;;;;6184490;23;20005;-74
2023/12/28 03:04:33;;;;;;;70.03;50.37;;;9.60;99.90;;;;;;6184420;23;20001;-75
2023/12/28 03:07:24;;;;;;;76.28;51.33;;;9.60;99.90;;;;;;6092308;23;20364;-76
2023/12/28 03:13:38;;;;;;;65.20;47.38;;;9.50;99.90;;;;;;6035796;23;20023;-72
2023/12/28 03:16:19;;;;;;;71.70;47.97;;;9.50;99.90;;;;;;6092093;23;20042;-75
2023/12/28 03:19:22;;;;;;;70.35;49.40;;;9.50;99.90;;;;;;6091547;23;20006;-78
2023/12/28 03:22:11;;;;;;;71.85;49.13;;;9.50;99.90;;;;;;6091989;23;20011;-76
2023/12/28 03:24:38;;;;;;;68.60;47.80;;;9.50;99.90;;;;;;6148962;23;20001;-74
2023/12/28 03:27:05;;;;;;;68.07;47.33;;;9.50;99.90;;;;;;6157163;23;20009;-76
2023/12/28 03:29:31;;;;;;;68.87;48.67;;;9.50;99.90;;;;;;6183328;23;20009;-77
2023/12/28 03:31:57;;;;;;;70.90;47.67;;;9.50;99.90;;;;;;6183738;23;20080;-77
2023/12/28 03:34:23;;;;;;;71.13;47.35;;;9.50;99.90;;;;;;6183883;23;20092;-76
2023/12/28 03:36:50;;;;;;;62.95;47.88;;;9.50;99.90;;;;;;6184264;23;20005;-77
2023/12/28 03:39:15;;;;;;;69.30;46.80;;;9.50;99.90;;;;;;6182067;23;20039;-76
2023/12/28 03:41:41;;;;;;;68.65;47.47;;;9.50;99.90;;;;;;6182898;23;20016;-77
2023/12/28 03:44:07;;;;;;;69.27;49.67;;;9.50;99.90;;;;;;6182516;23;20028;-76
2023/12/28 03:46:33;;;;;;;76.78;50.83;;;9.50;99.90;;;;;;6182233;23;20020;-75
2023/12/28 03:48:59;;;;;;;69.07;48.13;;;9.50;99.90;;;;;;6170517;23;20044;-77
2023/12/28 03:51:24;;;;;;;78.03;50.40;;;9.50;99.90;;;;;;6182610;23;20005;-76
2023/12/28 03:53:50;;;;;;;75.97;50.07;;;9.50;99.90;;;;;;6182688;23;20001;-81
2023/12/28 03:56:24;;;;;;;66.93;48.60;;;9.50;99.90;;;;;;6182381;23;20024;-82
2023/12/28 03:58:50;;;;;;;73.57;48.40;;;9.50;99.90;;;;;;6182242;23;20008;-82
2023/12/28 04:01:20;;;;;;;66.83;47.53;;;9.50;99.90;;;;;;6182194;23;20300;-79
2023/12/28 04:03:47;;;;;;;65.73;47.83;;;9.50;99.90;;;;;;6184562;23;20087;-86
2023/12/28 04:06:13;;;;;;;72.13;48.77;;;9.50;99.90;;;;;;6182858;23;20005;-82
2023/12/28 04:08:42;;;;;;;66.33;47.27;;;9.50;99.90;;;;;;6182354;23;20036;-82
2023/12/28 04:11:08;;;;;;;61.97;46.53;;;9.50;99.90;;;;;;6182382;23;20009;-84
2023/12/28 04:13:35;;;;;;;62.23;44.20;;;9.50;99.90;;;;;;6182926;23;20309;-84
2023/12/28 04:16:01;;;;;;;71.20;48.83;;;9.50;99.90;;;;;;6182674;23;20367;-86
2023/12/28 04:18:27;;;;;;;71.93;48.60;;;9.50;99.90;;;;;;6182965;23;20054;-84
2023/12/28 04:20:52;;;;;;;69.13;48.47;;;9.50;99.90;;;;;;6182558;23;19997;-82
2023/12/28 04:23:18;;;;;;;71.73;48.73;;;9.50;99.90;;;;;;6183257;23;20020;-75
2023/12/28 04:25:44;;;;;;;68.47;47.70;;;9.50;99.90;;;;;;6183177;23;20059;-74
2023/12/28 04:28:10;;;;;;;67.37;47.03;;;9.50;99.90;;;;;;6182158;23;20335;-74
2023/12/28 04:30:37;;;;;;;72.57;47.80;;;9.50;99.90;;;;;;6183305;23;20012;-76
2023/12/28 04:33:23;;;;;;;69.23;47.30;;;9.50;99.90;;;;;;6182931;23;20025;-73
2023/12/28 04:43:04;;;;;;;71.27;47.83;;;9.50;99.90;;;;;;6086093;23;20053;-76
2023/12/28 04:45:53;;;;;;;71.57;47.22;;;9.50;99.90;;;;;;6044359;23;20034;-74
2023/12/28 04:48:27;;;;;;;68.83;48.00;;;9.50;99.90;;;;;;6006078;23;20382;-75
2023/12/28 04:51:08;;;;;;;71.93;48.03;;;9.40;99.90;;;;;;6061235;23;20010;-77
2023/12/28 04:53:40;;;;;;;74.43;48.23;;;9.50;99.90;;;;;;6140886;23;20009;-75
2023/12/28 04:56:12;;;;;;;63.53;46.42;;;9.40;99.90;;;;;;6179984;23;20036;-76
2023/12/28 04:58:56;;;;;;;66.50;46.60;;;9.40;99.90;;;;;;6182999;23;20005;-77
2023/12/28 05:01:24;;;;;;;64.93;48.67;;;9.40;99.90;;;;;;6183378;23;20035;-78
2023/12/28 05:03:50;;;;;;;66.27;47.57;;;9.40;99.90;;;;;;6182469;23;20440;-78
2023/12/28 05:06:15;;;;;;;72.60;47.70;;;9.40;99.90;;;;;;6156530;23;20514;-75
2023/12/28 05:08:41;;;;;;;77.50;50.63;;;9.40;99.90;;;;;;6182079;23;20013;-74
2023/12/28 05:11:07;;;;;;;64.50;46.73;;;9.50;99.90;;;;;;6181921;23;20003;-76
2023/12/28 05:13:34;;;;;;;73.57;46.93;;;9.40;99.90;;;;;;6182285;23;20089;-78
2023/12/28 05:16:01;;;;;;;61.10;44.90;;;9.40;99.90;;;;;;6182081;23;20004;-75
2023/12/28 05:18:27;;;;;;;62.57;44.20;;;9.40;99.90;;;;;;6181345;23;20086;-79
2023/12/28 05:20:52;;;;;;;60.57;43.00;;;9.40;99.90;;;;;;6181391;23;20025;-76
2023/12/28 05:23:18;;;;;;;59.50;43.27;;;9.40;99.90;;;;;;6181248;23;20005;-77
2023/12/28 05:25:46;;;;;;;62.20;42.83;;;9.40;99.90;;;;;;6182915;23;20005;-73
2023/12/28 05:28:11;;;;;;;59.57;41.87;;;9.40;99.90;;;;;;6185601;23;20009;-77
2023/12/28 05:30:37;;;;;;;60.40;41.43;;;9.40;99.90;;;;;;6181908;23;20043;-75
2023/12/28 05:33:03;;;;;;;58.20;42.17;;;9.40;99.90;;;;;;6182839;23;20001;-76
2023/12/28 05:35:29;;;;;;;55.67;40.27;;;9.40;99.90;;;;;;6132267;23;20406;-75
2023/12/28 05:37:55;;;;;;;56.97;41.37;;;9.40;99.90;;;;;;6184515;23;20001;-76
2023/12/28 05:40:20;;;;;;;49.03;35.87;;;9.40;99.90;;;;;;6184089;23;20009;-75
2023/12/28 05:42:46;;;;;;;45.63;32.77;;;9.40;99.90;;;;;;6184348;23;20079;-75
2023/12/28 05:45:12;;;;;;;41.63;31.03;;;9.40;99.90;;;;;;6184734;23;19993;-74
2023/12/28 05:47:38;;;;;;;44.23;29.53;;;9.40;99.90;;;;;;6184596;23;20013;-76
2023/12/28 05:50:05;;;;;;;34.07;25.73;;;9.40;99.90;;;;;;6184748;23;20008;-75
2023/12/28 05:52:31;;;;;;;43.33;26.87;;;9.40;99.90;;;;;;6184223;23;20078;-74
2023/12/28 05:54:57;;;;;;;41.30;26.77;;;9.40;99.90;;;;;;6184541;23;20006;-75
2023/12/28 05:57:23;;;;;;;35.47;25.17;;;9.40;99.90;;;;;;6184531;23;20017;-75
2023/12/28 05:59:48;;;;;;;35.47;24.65;;;9.40;99.90;;;;;;6184211;23;20362;-76
2023/12/28 06:02:15;;;;;;;36.60;25.47;;;9.40;99.90;;;;;;6185457;23;20016;-74
2023/12/28 06:04:41;;;;;;;36.80;25.47;;;9.40;99.90;;;;;;6185703;23;20004;-74
2023/12/28 06:07:06;;;;;;;36.37;24.37;;;9.40;99.90;;;;;;6185541;23;20013;-75
2023/12/28 06:09:32;;;;;;;37.37;25.40;;;9.40;99.90;;;;;;6185155;23;20052;-76
2023/12/28 06:13:00;;;;;;;38.67;26.03;;;9.40;99.90;;;;;;6185132;23;20005;-75
2023/12/28 06:23:30;;;;;;;55.17;37.93;;;9.30;99.90;;;;;;5924363;24;20098;-75
2023/12/28 06:26:14;;;;;;;55.30;40.83;;;9.30;99.90;;;;;;6007759;23;20007;-75
2023/12/28 06:32:01;;;;;;;56.33;39.07;;;9.30;99.90;;;;;;6007908;23;20546;-75
2023/12/28 06:35:13;;;;;;;60.37;42.20;;;9.30;99.90;;;;;;6054184;23;20057;-75
2023/12/28 06:37:40;;;;;;;56.20;41.43;;;9.30;99.90;;;;;;6002954;23;20026;-75
2023/12/28 06:40:07;;;;;;;61.83;43.70;;;9.30;99.90;;;;;;6069536;23;20019;-75
2023/12/28 06:42:32;;;;;;;59.63;42.27;;;9.30;99.90;;;;;;6143108;23;20009;-75
2023/12/28 06:44:58;;;;;;;59.37;41.70;;;9.30;99.90;;;;;;6214795;23;20075;-75
2023/12/28 06:47:25;;;;;;;59.83;41.70;;;9.30;99.90;;;;;;6214797;23;20008;-75
2023/12/28 06:49:51;;;;;;;57.70;42.23;;;9.30;99.90;;;;;;6215025;23;20055;-75
2023/12/28 06:52:16;;;;;;;59.43;44.80;;;9.30;99.90;;;;;;6215038;23;20001;-75
2023/12/28 06:54:42;;;;;;;56.93;40.87;;;9.30;99.90;;;;;;6215286;23;20037;-75
2023/12/28 06:57:08;;;;;;;61.40;43.27;;;9.30;99.90;;;;;;6214841;23;20012;-75
2023/12/28 06:59:34;;;;;;;58.90;42.10;;;9.30;99.90;;;;;;6214894;23;20012;-75
2023/12/28 07:01:59;;;;;;;55.03;41.70;;;9.20;99.90;;;;;;6215077;23;20008;-75
2023/12/28 07:04:29;;;;;;;56.87;42.17;;;9.20;99.90;;;;;;6214512;23;20011;-75
2023/12/28 07:06:55;;;;;;;58.53;41.90;;;9.20;99.90;;;;;;6212091;23;20032;-75
2023/12/28 07:09:21;;;;;;;55.33;40.57;;;9.20;99.90;;;;;;6214181;23;20382;-73
2023/12/28 07:11:47;;;;;;;52.37;36.90;;;9.20;99.90;;;;;;6214112;23;20027;-76
2023/12/28 07:14:13;;;;;;;57.63;40.30;;;9.20;99.90;;;;;;6214177;23;20005;-71
2023/12/28 07:16:42;;;;;;;54.30;38.07;;;9.20;99.90;;;;;;6215724;23;20001;-72
2023/12/28 07:19:08;;;;;;;57.40;37.57;;;9.30;99.90;;;;;;6215850;23;20011;-75
2023/12/28 07:21:34;;;;;;;52.57;37.27;;;9.20;99.90;;;;;;6216285;23;20076;-75
2023/12/28 07:23:59;;;;;;;56.77;40.57;;;9.20;99.90;;;;;;6216098;23;20000;-75
2023/12/28 07:26:25;;;;;;;55.67;39.87;;;9.20;99.90;;;;;;6216009;23;20004;-75
2023/12/28 07:28:51;;;;;;;59.27;40.53;;;9.20;99.90;;;;;;6215757;23;20013;-75
2023/12/28 07:31:27;;;;;;;58.67;38.73;;;9.20;99.90;;;;;;6216220;23;20009;-76
2023/12/28 07:33:53;;;;;;;56.00;39.73;;;9.20;99.90;;;;;;6216026;23;20009;-75
2023/12/28 07:36:20;;;;;;;54.03;38.50;;;9.20;99.90;;;;;;6216466;23;20031;-75
2023/12/28 07:38:46;;;;;;;58.47;40.27;;;9.20;99.90;;;;;;6215686;23;20005;-74
2023/12/28 07:41:12;;;;;;;58.53;40.07;;;9.20;99.90;;;;;;6215169;23;20095;-75
2023/12/28 07:43:37;;;;;;;56.17;40.17;;;9.20;99.90;;;;;;6190223;23;20005;-75
2023/12/28 07:46:04;;;;;;;60.50;41.53;;;9.20;99.90;;;;;;6217074;23;20335;-76
2023/12/28 07:48:35;;;;;;;62.17;41.03;;;9.20;99.90;;;;;;6216909;23;20371;-74
2023/12/28 07:54:44;;;;;;;56.10;39.97;;;9.20;99.90;;;;;;6216206;23;20094;-74
2023/12/28 07:58:07;;;;;;;59.03;40.80;;;9.20;99.90;;;;;;6216852;23;20123;-75
2023/12/28 08:14:47;;;;;;;59.23;40.87;;;9.30;99.90;;;;;;6006602;23;20083;-74
2023/12/28 08:17:13;;;;;;;56.30;41.13;;;9.30;99.90;;;;;;6054831;23;20315;-74
2023/12/28 08:19:40;;;;;;;59.63;42.20;;;9.30;99.90;;;;;;6093160;23;20341;-74
2023/12/28 08:22:05;;;;;;;64.53;41.53;;;9.30;99.90;;;;;;6201865;23;20008;-74
2023/12/28 08:24:32;;;;;;;53.57;39.93;;;9.30;99.90;;;;;;6215921;23;20005;-74
2023/12/28 08:26:59;;;;;;;54.40;39.60;;;9.30;99.90;;;;;;6215424;23;19997;-74
2023/12/28 08:29:26;;;;;;;50.63;36.23;;;9.30;99.90;;;;;;6216094;23;20016;-74
2023/12/28 08:31:52;;;;;;;51.53;37.43;;;9.30;99.90;;;;;;6216024;23;20331;-74
2023/12/28 08:34:17;;;;;;;48.40;34.00;;;9.30;99.90;;;;;;6215969;23;20032;-74
2023/12/28 08:36:43;;;;;;;49.80;35.60;;;9.40;99.90;;;;;;6215853;23;20004;-75
2023/12/28 08:39:09;;;;;;;51.23;34.43;;;9.40;99.90;;;;;;6215431;23;20019;-74
2023/12/28 08:41:35;;;;;;;47.87;33.43;;;9.40;99.90;;;;;;6215920;23;20008;-74
2023/12/28 08:44:00;;;;;;;56.30;36.33;;;9.40;99.90;;;;;;6214218;23;20007;-75
2023/12/28 08:46:26;;;;;;;69.83;40.93;;;9.40;99.90;;;;;;6215780;23;19997;-75
2023/12/28 08:48:52;;;;;;;62.00;37.90;;;9.40;99.90;;;;;;6215625;23;20095;-75
2023/12/28 08:51:18;;;;;;;72.33;43.57;;;9.40;99.90;;;;;;6215815;23;20083;-74
2023/12/28 08:53:44;;;;;;;87.77;46.50;;;9.40;99.90;;;;;;6216058;23;20032;-73
2023/12/28 08:56:19;;;;;;;81.07;44.57;;;9.40;99.90;;;;;;6215751;23;20007;-75
2023/12/28 08:58:47;;;;;;;75.47;41.63;;;9.40;99.90;;;;;;6215930;23;20005;-75
2023/12/28 09:01:31;;;;;;;67.10;39.60;;;9.40;99.90;;;;;;6215740;23;20001;-74
2023/12/28 09:03:58;;;;;;;69.57;41.17;;;9.40;99.90;;;;;;6215713;23;20004;-75
2023/12/28 09:06:24;;;;;;;61.13;39.17;;;9.50;99.90;;;;;;6215700;23;20028;-74
2023/12/28 09:08:52;;;;;;;50.53;36.73;;;9.50;99.90;;;;;;6215299;23;20012;-74
2023/12/28 09:11:18;;;;;;;61.20;38.17;;;9.50;99.90;;;;;;6215798;23;20082;-74
2023/12/28 09:13:44;;;;;;;61.37;38.83;;;9.50;99.90;;;;;;6215675;23;20517;-75
2023/12/28 09:16:14;;;;;;;49.87;34.40;;;9.50;99.90;;;;;;6215272;23;19997;-75
2023/12/28 09:18:41;;;;;;;46.00;33.53;;;9.50;99.90;;;;;;6215633;23;20050;-75
2023/12/28 09:21:09;;;;;;;47.13;32.73;;;9.50;99.90;;;;;;6216119;23;20011;-74
2023/12/28 09:23:36;;;;;;;51.97;34.50;;;9.50;99.90;;;;;;6215995;23;20454;-74
2023/12/28 09:26:03;;;;;;;44.90;32.43;;;9.50;99.90;;;;;;6216142;23;19997;-75
2023/12/28 09:31:48;;;;;;;43.70;30.60;;;9.60;99.90;;;;;;6243804;23;20082;-69
2023/12/28 09:42:52;;;;;;;;;;;;;;;;;;;;;
2023/12/28 09:46:00;;;;;;;47.43;31.37;;;9.60;99.90;;;;;;5974126;23;20091;-69
2023/12/28 09:48:59;;;;;;;43.13;30.43;;;9.60;99.90;;;;;;5975851;24;20026;-69
2023/12/28 09:51:26;;;;;;;50.20;30.70;;;9.60;99.90;;;;;;5955415;24;20008;-69
2023/12/28 09:53:52;;;;;;;44.30;32.00;;;9.70;99.90;;;;;;5982926;23;20148;-69
2023/12/28 09:56:18;;;;;;;46.97;33.40;;;9.70;99.90;;;;;;6194013;23;20008;-69
2023/12/28 09:58:46;;;;;;;50.38;31.98;;;9.70;99.90;;;;;;6245781;23;19997;-69
2023/12/28 10:01:14;;;;;;;46.07;32.33;;;9.70;99.90;;;;;;6217975;23;20342;-69
2023/12/28 10:03:40;;;;;;;46.87;32.40;;;9.70;99.90;;;;;;6245582;23;20049;-68
2023/12/28 10:06:06;;;;;;;48.33;33.87;;;9.70;99.90;;;;;;6245526;23;20087;-69
2023/12/28 10:08:32;;;;;;;50.70;34.83;;;9.70;99.90;;;;;;6218741;23;20170;-69
2023/12/28 10:10:58;;;;;;;52.05;35.35;;;9.70;99.90;;;;;;6245939;23;21001;-69
2023/12/28 10:13:25;;;;;;;48.67;31.57;;;9.80;99.90;;;;;;6245642;23;20004;-68
2023/12/28 10:15:51;;;;;;;44.37;33.03;;;9.80;99.90;;;;;;6245834;23;20004;-69
2023/12/28 10:18:20;;;;;;;43.40;30.87;;;9.80;99.90;;;;;;6245600;23;20430;-69
2023/12/28 10:20:53;;;;;;;43.80;27.43;;;9.80;99.90;;;;;;6245898;23;19996;-69
2023/12/28 10:23:20;;;;;;;44.97;25.85;;;9.80;99.90;;;;;;6245676;23;20423;-69
2023/12/28 10:25:48;;;;;;;38.47;25.37;;;9.80;99.90;;;;;;6245823;23;20004;-69
2023/12/28 10:28:15;;;;;;;36.77;23.93;;;9.80;99.90;;;;;;6245339;23;20480;-69
2023/12/28 10:30:41;;;;;;;39.10;25.17;;;9.80;99.90;;;;;;6245494;23;20024;-69
2023/12/28 10:33:07;;;;;;;42.93;24.83;;;9.80;99.90;;;;;;6218768;23;20008;-69
2023/12/28 10:35:33;;;;;;;32.95;24.17;;;9.80;99.90;;;;;;6243264;23;20058;-69
2023/12/28 10:38:04;;;;;;;37.77;23.60;;;9.80;99.90;;;;;;6244810;23;20453;-69
2023/12/28 10:40:32;;;;;;;34.87;23.50;;;9.80;99.90;;;;;;6245110;23;19996;-69
2023/12/28 10:43:05;;;;;;;35.33;22.57;;;9.80;99.90;;;;;;6244790;23;20000;-69
2023/12/28 10:45:37;;;;;;;37.73;23.37;;;9.80;99.90;;;;;;6245417;23;20020;-68
2023/12/28 10:48:09;;;;;;;30.27;21.83;;;9.80;99.90;;;;;;6245350;23;20027;-69
2023/12/28 10:50:42;;;;;;;33.83;23.02;;;9.80;99.90;;;;;;6247300;23;20012;-69
2023/12/28 10:53:20;;;;;;;38.22;22.13;;;9.80;99.90;;;;;;6220118;23;20393;-69
2023/12/28 10:56:11;;;;;;;37.30;21.53;;;9.80;99.90;;;;;;6247974;23;20035;-69
2023/12/28 10:58:49;;;;;;;42.40;21.63;;;9.80;99.90;;;;;;6248368;23;20174;-69
2023/12/28 11:01:35;;;;;;;36.83;21.23;;;9.90;99.90;;;;;;6248288;23;20373;-69
2023/12/28 11:04:11;;;;;;;32.23;22.10;;;9.80;99.90;;;;;;6247993;23;20019;-69
2023/12/28 11:06:38;;;;;;;36.03;22.77;;;9.90;99.90;;;;;;6247598;23;20090;-69
2023/12/28 11:19:58;;;;;;;36.42;22.35;;;9.90;99.90;;;;;;5980551;24;20027;-69
2023/12/28 11:22:25;;;;;;;29.73;22.43;;;9.90;99.90;;;;;;5954681;24;20043;-69
2023/12/28 11:28:33;;;;;;;33.73;23.47;;;9.90;99.90;;;;;;5948421;24;20529;-69
2023/12/28 11:30:59;;;;;;;34.73;24.93;;;10.00;99.90;;;;;;5994890;23;20420;-69
2023/12/28 11:33:31;;;;;;;34.17;23.35;;;9.90;99.90;;;;;;6166968;23;20001;-69
2023/12/28 11:35:58;;;;;;;40.17;25.60;;;10.00;99.90;;;;;;6246232;23;20023;-69
2023/12/28 11:38:25;;;;;;;43.15;28.40;;;10.00;99.90;;;;;;6246682;23;20311;-69
2023/12/28 11:40:52;;;;;;;47.10;30.60;;;10.00;99.90;;;;;;6246975;23;20091;-69
2023/12/28 11:43:20;;;;;;;41.00;27.23;;;10.00;99.90;;;;;;6246877;23;20011;-69
2023/12/28 11:45:55;;;;;;;36.33;25.90;;;10.00;99.90;;;;;;6247147;23;20004;-69
2023/12/28 11:48:28;;;;;;;40.07;27.10;;;10.00;99.90;;;;;;6246879;23;20070;-68
2023/12/28 11:50:59;;;;;;;45.22;25.92;;;10.00;99.90;;;;;;6246402;23;20437;-69
2023/12/28 11:53:26;;;;;;;35.67;25.65;;;10.00;99.90;;;;;;6246595;23;20001;-68
2023/12/28 11:55:52;;;;;;;35.80;25.98;;;10.10;99.90;;;;;;6246357;23;20061;-69
2023/12/28 11:58:19;;;;;;;37.63;26.03;;;10.00;99.90;;;;;;6246722;23;20000;-69
2023/12/28 12:00:45;;;;;;;38.30;26.00;;;10.10;99.90;;;;;;6245712;23;20084;-69
2023/12/28 12:03:11;;;;;;;38.50;26.63;;;10.00;99.90;;;;;;6246592;23;19996;-69
2023/12/28 12:05:37;;;;;;;37.60;26.60;;;10.00;99.90;;;;;;6246709;23;20316;-69
2023/12/28 12:08:05;;;;;;;30.90;25.13;;;10.10;99.90;;;;;;6246361;23;20414;-69
2023/12/28 12:10:32;;;;;;;37.23;24.73;;;10.10;99.90;;;;;;6246769;23;20061;-69
2023/12/28 12:12:58;;;;;;;41.60;26.27;;;10.10;99.90;;;;;;6246586;23;20069;-69
2023/12/28 12:15:23;;;;;;;47.83;32.77;;;10.10;99.90;;;;;;6246357;23;20031;-69
2023/12/28 12:17:50;;;;;;;54.80;35.23;;;10.10;99.90;;;;;;6246376;23;19996;-69
2023/12/28 12:20:16;;;;;;;41.10;29.87;;;10.10;99.90;;;;;;6246166;23;20468;-69
2023/12/28 12:22:42;;;;;;;39.53;26.58;;;10.10;99.90;;;;;;6246514;23;20001;-69
2023/12/28 12:25:08;;;;;;;36.50;26.55;;;10.10;99.90;;;;;;6246869;23;20426;-71
2023/12/28 12:27:36;;;;;;;35.15;25.77;;;10.20;99.90;;;;;;6243479;23;20007;-69
2023/12/28 12:30:02;;;;;;;34.40;25.20;;;10.10;99.90;;;;;;6243207;23;20027;-70
2023/12/28 12:32:29;;;;;;;39.00;25.45;;;10.10;99.90;;;;;;6244756;23;20004;-70
2023/12/28 12:34:55;;;;;;;37.65;25.13;;;10.20;99.90;;;;;;6246620;23;20031;-70
2023/12/28 12:54:38;;;;;;;35.43;23.13;;;10.20;99.90;;;;;;6149629;23;20031;-71
2023/12/28 12:57:57;;;;;;;38.37;22.77;;;10.20;99.90;;;;;;6234542;23;20004;-70
2023/12/28 13:01:05;;;;;;;30.40;21.93;;;10.20;99.90;;;;;;6158487;23;20091;-70
2023/12/28 13:03:40;;;;;;;36.37;21.93;;;10.20;99.90;;;;;;6152334;23;20117;-69
2023/12/28 13:06:07;;;;;;;28.67;21.30;;;10.20;99.90;;;;;;6243749;23;20396;-69
2023/12/28 13:08:33;;;;;;;30.80;22.00;;;10.30;99.90;;;;;;6245668;23;20019;-70
2023/12/28 13:10:59;;;;;;;34.67;22.40;;;10.20;99.90;;;;;;6244966;23;20083;-70
2023/12/28 13:13:26;;;;;;;34.33;22.63;;;10.20;99.90;;;;;;6245243;22;20071;-70
2023/12/28 13:15:52;;;;;;;34.67;21.97;;;10.20;99.90;;;;;;6245888;23;20494;-70
2023/12/28 13:18:17;;;;;;;30.87;20.43;;;10.20;99.90;;;;;;6244294;23;20004;-70
2023/12/28 13:20:44;;;;;;;32.13;21.30;;;10.20;99.90;;;;;;6242021;23;20028;-71
2023/12/28 13:23:10;;;;;;;41.80;21.23;;;10.20;99.90;;;;;;6240320;23;20004;-70
2023/12/28 13:25:36;;;;;;;31.83;22.80;;;10.20;99.90;;;;;;6218336;23;20326;-70
2023/12/28 13:28:02;;;;;;;39.00;25.52;;;10.20;99.90;;;;;;6245215;23;20000;-71
2023/12/28 13:30:31;;;;;;;37.42;26.52;;;10.20;99.90;;;;;;6245241;23;20020;-70
2023/12/28 13:32:57;;;;;;;45.03;27.88;;;10.30;99.90;;;;;;6245256;23;20441;-70
2023/12/28 13:35:23;;;;;;;47.55;30.33;;;10.30;99.90;;;;;;6244601;23;20066;-70
2023/12/28 13:37:49;;;;;;;50.30;30.52;;;10.30;99.90;;;;;;6245001;23;20028;-70
2023/12/28 13:40:15;;;;;;;47.83;28.67;;;10.30;99.90;;;;;;6218845;23;20000;-69
2023/12/28 13:42:41;;;;;;;42.88;29.60;;;10.30;99.90;;;;;;6245517;23;20031;-69
2023/12/28 13:45:08;;;;;;;55.78;39.28;;;10.30;99.90;;;;;;6244972;23;20338;-68
2023/12/28 13:47:33;;;;;;;54.95;39.70;;;10.30;99.90;;;;;;6245327;23;20438;-80
2023/12/28 13:49:59;;;;;;;53.75;38.17;;;10.30;99.90;;;;;;6245285;23;20008;-80
2023/12/28 13:52:25;;;;;;;52.72;39.05;;;10.30;99.90;;;;;;6245032;23;20024;-80
2023/12/28 13:54:51;;;;;;;56.33;40.95;;;10.30;99.90;;;;;;6245201;23;20058;-78
2023/12/28 13:57:17;;;;;;;55.38;39.97;;;10.30;99.90;;;;;;6245289;23;20450;-79
2023/12/28 13:59:43;;;;;;;54.47;40.93;;;10.30;99.90;;;;;;6242172;23;20011;-72
2023/12/28 14:02:09;;;;;;;57.33;42.63;;;10.30;99.90;;;;;;6244833;23;20454;-80
2023/12/28 14:04:34;;;;;;;57.58;40.97;;;10.30;99.90;;;;;;6245111;23;20448;-79
2023/12/28 14:07:03;;;;;;;59.03;43.13;;;10.30;99.90;;;;;;6245145;23;20020;-79
2023/12/28 14:09:30;;;;;;;56.40;41.10;;;10.30;99.90;;;;;;6245001;23;20074;-79
2023/12/28 14:11:56;;;;;;;62.55;42.17;;;10.30;99.90;;;;;;6245002;23;20008;-79
2023/12/28 14:14:54;;;;;;;57.65;40.75;;;10.30;99.90;;;;;;6245286;23;20007;-75